Time;durP1;ratioP1;P1;durP2;ratioP2;P2;SDS_P1;SDS_P2;PMS_P1;PMS_P2;Temp;Humidity;BMP_temperature;BMP_pressure;BME280_temperature;BME280_humidity;BME280_pressure;Samples;Min_cycle;Max_cycle;Signal;HPM_P1;HPM_P2
2021/06/04 00:01:07;;;;;;;;;9.00;9.00;;;;;24.43;53.18;101383.13;5058940;28;47311;-52
2021/06/04 00:03:33;;;;;;;;;9.00;9.00;;;;;24.41;53.64;101379.66;5058347;28;46045;-52
2021/06/04 00:06:00;;;;;;;;;9.00;9.00;;;;;24.40;53.40;101375.22;5048448;28;45381;-52
2021/06/04 00:08:26;;;;;;;;;13.50;12.75;;;;;24.40;53.55;101389.66;5040725;28;45414;-51
2021/06/04 00:10:51;;;;;;;;;7.00;7.00;;;;;24.36;53.44;101379.97;5056519;28;47242;-52
2021/06/04 00:13:36;;;;;;;;;14.50;12.25;;;;;24.35;53.63;101381.81;5055645;28;45810;-49
2021/06/04 00:16:13;;;;;;;;;16.25;15.00;;;;;24.33;53.70;101391.91;5047020;28;45642;-50
2021/06/04 00:18:40;;;;;;;;;13.50;13.50;;;;;24.26;53.76;101398.66;5053077;28;45297;-50
2021/06/04 00:21:14;;;;;;;;;11.50;11.00;;;;;24.24;53.98;101399.75;5052827;28;47384;-50
2021/06/04 00:23:40;;;;;;;;;15.50;13.75;;;;;24.19;54.28;101401.91;5051358;28;45491;-53
2021/06/04 00:26:07;;;;;;;;;14.00;13.25;;;;;24.18;54.22;101413.75;5041801;28;45432;-50
2021/06/04 00:28:33;;;;;;;;;19.75;19.75;;;;;24.16;54.56;101424.69;5055413;28;45372;-50
2021/06/04 00:30:59;;;;;;;;;17.75;15.25;;;;;24.14;54.50;101432.06;5055588;28;47322;-50
2021/06/04 00:33:25;;;;;;;;;20.00;18.25;;;;;24.12;54.42;101417.72;5057886;28;45318;-51
2021/06/04 00:35:51;;;;;;;;;16.50;16.50;;;;;24.11;55.02;101426.84;5044509;28;45664;-51
2021/06/04 00:38:17;;;;;;;;;19.25;17.50;;;;;24.10;54.87;101413.38;5073932;28;45521;-50
2021/06/04 00:40:47;;;;;;;;;16.75;16.75;;;;;24.11;54.73;101415.97;5059891;28;47279;-47
2021/06/04 00:43:13;;;;;;;;;19.75;17.75;;;;;24.08;54.97;101417.06;5058684;28;45831;-51
2021/06/04 00:45:43;;;;;;;;;20.50;20.50;;;;;24.07;55.11;101420.75;5059673;28;45305;-49
2021/06/04 00:48:10;;;;;;;;;21.50;19.50;;;;;24.07;55.21;101428.88;5056180;28;45505;-52
2021/06/04 00:51:00;;;;;;;;;20.00;19.25;;;;;24.02;55.24;101430.19;5039304;28;47389;-47
2021/06/04 00:53:26;;;;;;;;;26.50;24.50;;;;;24.01;55.55;101428.41;5046777;28;45848;-50
2021/06/04 00:55:54;;;;;;;;;21.75;18.00;;;;;23.99;55.66;101417.66;5058332;28;45315;-53
2021/06/04 00:58:25;;;;;;;;;23.50;21.75;;;;;23.95;55.56;101428.84;5065198;28;45405;-51
2021/06/04 01:00:54;;;;;;;;;23.00;21.25;;;;;23.87;55.49;101437.47;5049034;28;47339;-52
2021/06/04 01:03:24;;;;;;;;;24.25;22.75;;;;;23.85;55.72;101443.97;5041101;28;45549;-49
2021/06/04 01:05:50;;;;;;;;;26.50;23.50;;;;;23.82;56.16;101447.75;5048810;28;45575;-49
2021/06/04 01:08:34;;;;;;;;;27.50;23.75;;;;;23.83;56.12;101479.31;5054932;28;45285;-51
2021/06/04 01:11:05;;;;;;;;;27.00;24.75;;;;;23.82;55.75;101503.81;5037793;28;47174;-49
2021/06/04 01:13:57;;;;;;;;;24.50;23.75;;;;;23.73;56.34;101499.84;5045050;28;45320;-51
2021/06/04 01:16:29;;;;;;;;;25.75;25.00;;;;;23.66;55.93;101476.81;5057877;28;45398;-53
2021/06/04 01:19:42;;;;;;;;;28.75;25.00;;;;;23.59;56.50;101468.22;5059379;28;45521;-50
2021/06/04 01:22:15;;;;;;;;;29.25;27.50;;;;;23.53;57.03;101473.13;5048191;28;46490;-51
2021/06/04 01:25:03;;;;;;;;;23.00;22.50;;;;;23.49;57.07;101473.31;5037381;28;45447;-48
2021/06/04 01:27:34;;;;;;;;;24.75;23.50;;;;;23.47;57.11;101463.53;5039168;28;45660;-51
2021/06/04 01:30:31;;;;;;;;;26.50;25.00;;;;;23.48;57.21;101459.84;5057951;28;45384;-54
2021/06/04 01:33:04;;;;;;;;;22.25;22.25;;;;;23.50;57.54;101471.47;5037330;28;47409;-53
2021/06/04 01:35:49;;;;;;;;;23.50;21.75;;;;;23.51;57.55;101458.81;5070303;28;45397;-50
2021/06/04 01:38:18;;;;;;;;;23.75;23.75;;;;;23.53;57.70;101438.78;5047288;28;45443;-49
2021/06/04 01:40:48;;;;;;;;;28.25;25.25;;;;;23.56;57.71;101448.53;5072374;28;45338;-49
2021/06/04 01:43:26;;;;;;;;;25.00;23.00;;;;;23.53;57.58;101449.63;5065074;28;47174;-50
2021/06/04 01:46:00;;;;;;;;;22.00;20.75;;;;;23.54;57.79;101447.78;5074286;28;45439;-51
2021/06/04 01:48:31;;;;;;;;;25.00;23.25;;;;;23.58;57.41;101452.06;5058970;28;45556;-49
2021/06/04 01:51:15;;;;;;;;;21.25;19.50;;;;;23.61;57.71;101451.84;5057375;28;45492;-48
2021/06/04 01:53:45;;;;;;;;;21.00;20.75;;;;;23.64;57.08;101443.53;5038183;28;47315;-50
2021/06/04 01:56:29;;;;;;;;;15.75;15.75;;;;;23.65;57.07;101435.31;5038718;28;45291;-48
2021/06/04 01:59:00;;;;;;;;;20.00;20.00;;;;;23.65;56.69;101439.84;5053893;28;45706;-51
2021/06/04 02:01:33;;;;;;;;;21.00;19.00;;;;;23.66;56.73;101422.63;5058665;28;45603;-52
2021/06/04 02:03:59;;;;;;;;;20.75;19.50;;;;;23.65;56.70;101420.88;5047464;28;47029;-52
2021/06/04 02:06:28;;;;;;;;;20.50;20.00;;;;;23.65;56.82;101420.88;5045794;28;45269;-53
2021/06/04 02:08:57;;;;;;;;;18.50;18.50;;;;;23.64;56.66;101422.72;5054586;28;45649;-51
2021/06/04 02:11:29;;;;;;;;;20.25;20.25;;;;;23.65;56.66;101423.59;5043787;28;45323;-51
2021/06/04 02:13:56;;;;;;;;;19.00;19.00;;;;;23.63;56.20;101414.69;5058081;28;48399;-52
2021/06/04 02:16:24;;;;;;;;;25.75;22.50;;;;;23.61;56.47;101406.66;5052291;28;45802;-49
2021/06/04 02:19:02;;;;;;;;;16.00;15.75;;;;;23.60;56.38;101410.31;5038191;28;45638;-48
2021/06/04 02:21:35;;;;;;;;;20.00;19.00;;;;;23.60;56.37;101402.19;5047411;28;45537;-50
2021/06/04 02:24:54;;;;;;;;;23.25;21.50;;;;;23.60;56.13;101406.75;5040397;28;47218;-51
2021/06/04 02:27:27;;;;;;;;;26.00;23.00;;;;;23.58;56.37;101409.56;5034561;28;45532;-50
2021/06/04 02:30:22;;;;;;;;;19.75;19.75;;;;;23.53;55.83;101422.53;5030736;28;45483;-50
2021/06/04 02:33:06;;;;;;;;;20.75;20.75;;;;;23.47;55.80;101426.47;5039150;28;45350;-50
2021/06/04 02:35:38;;;;;;;;;19.50;19.50;;;;;23.40;55.60;101440.53;5049877;28;47255;-49
2021/06/04 02:38:28;;;;;;;;;23.50;20.50;;;;;23.34;56.42;101459.88;5056614;28;46292;-54
2021/06/04 02:41:03;;;;;;;;;21.50;21.50;;;;;23.30;56.37;101477.28;5058028;28;45489;-52
2021/06/04 02:43:35;;;;;;;;;22.75;22.75;;;;;23.27;56.07;101485.63;5058189;28;45632;-51
2021/06/04 02:46:20;;;;;;;;;21.50;17.75;;;;;23.22;56.30;101491.28;5056939;28;47117;-51
2021/06/04 02:48:49;;;;;;;;;19.50;18.00;;;;;23.17;56.48;101488.88;5057926;28;45460;-52
2021/06/04 02:51:49;;;;;;;;;22.50;22.50;;;;;23.10;56.23;101481.22;5049527;28;45672;-53
2021/06/04 02:54:18;;;;;;;;;20.25;19.25;;;;;23.03;56.46;101475.34;5036351;28;45492;-47
2021/06/04 02:56:47;;;;;;;;;38.50;35.25;;;;;23.02;57.40;101481.72;5037626;28;47062;-52
2021/06/04 02:59:22;;;;;;;;;21.25;21.25;;;;;23.04;57.31;101497.88;5039181;28;45783;-52
2021/06/04 03:01:56;;;;;;;;;20.75;19.50;;;;;23.01;56.72;101522.41;5056876;28;45420;-47
2021/06/04 03:04:23;;;;;;;;;23.00;20.75;;;;;22.99;57.44;101541.44;5038001;28;45598;-50
2021/06/04 03:06:56;;;;;;;;;20.75;20.50;;;;;22.99;57.64;101554.09;5037018;28;46454;-48
2021/06/04 03:09:28;;;;;;;;;17.25;17.25;;;;;22.96;58.01;101547.03;5046093;28;46272;-49
2021/06/04 03:11:58;;;;;;;;;22.75;19.00;;;;;22.99;57.72;101517.06;5037279;28;45446;-48
2021/06/04 03:14:25;;;;;;;;;22.00;21.00;;;;;23.01;57.97;101498.94;5043829;28;45873;-48
2021/06/04 03:16:52;;;;;;;;;20.50;18.75;;;;;23.03;58.44;101442.84;5056904;28;47197;-49
2021/06/04 03:19:19;;;;;;;;;26.50;24.50;;;;;23.08;58.23;101408.22;5065699;28;45444;-49
2021/06/04 03:21:49;;;;;;;;;19.75;19.50;;;;;23.11;58.19;101407.16;5058373;28;45341;-49
2021/06/04 03:24:17;;;;;;;;;19.75;19.00;;;;;;;;5048068;28;45553;-48
2021/06/04 03:26:43;;;;;;;;;18.25;18.00;;;;;23.07;58.33;101382.13;5060905;28;48065;-52
2021/06/04 03:29:14;;;;;;;;;28.00;22.00;;;;;23.07;58.33;101367.72;5059673;28;46102;-48
2021/06/04 03:31:43;;;;;;;;;19.25;18.50;;;;;23.07;58.09;101359.59;5060619;28;45678;-50
2021/06/04 03:34:10;;;;;;;;;21.75;21.25;;;;;23.05;58.17;101369.66;5048846;28;45681;-52
2021/06/04 03:36:43;;;;;;;;;20.50;19.75;;;;;23.03;58.25;101382.41;5047709;28;47389;-47
2021/06/04 03:39:13;;;;;;;;;23.25;21.25;;;;;22.96;58.71;101376.50;5047387;28;45514;-47
2021/06/04 03:41:41;;;;;;;;;23.00;22.00;;;;;22.92;58.95;101368.69;5059408;28;45374;-48
2021/06/04 03:44:09;;;;;;;;;20.75;18.75;;;;;22.92;58.85;101374.09;5055271;28;45508;-50
2021/06/04 03:46:35;;;;;;;;;28.75;25.00;;;;;22.92;58.65;101369.56;5059688;28;47333;-46
2021/06/04 03:49:01;;;;;;;;;21.00;20.00;;;;;22.90;58.76;101366.09;5057248;28;45420;-49
2021/06/04 03:51:34;;;;;;;;;22.25;21.75;;;;;22.88;58.54;101363.47;5048568;28;45916;-46
2021/06/04 03:54:01;;;;;;;;;21.25;21.00;;;;;22.87;58.53;101359.03;5058480;28;45294;-47
2021/06/04 03:56:27;;;;;;;;;24.25;20.75;;;;;22.86;58.51;101353.69;5045373;28;48523;-46
2021/06/04 03:58:55;;;;;;;;;22.75;21.25;;;;;22.84;58.21;101344.81;5042650;28;45422;-50
2021/06/04 04:01:29;;;;;;;;;25.75;24.25;;;;;22.84;58.31;101347.50;5038948;28;45473;-52
2021/06/04 04:03:54;;;;;;;;;25.00;24.25;;;;;22.84;58.00;101339.38;5040647;28;45367;-50
2021/06/04 04:06:21;;;;;;;;;23.75;22.50;;;;;22.84;58.26;101333.97;5039932;28;46879;-50
2021/06/04 04:08:46;;;;;;;;;22.75;19.75;;;;;22.86;57.94;101322.06;5051918;28;45370;-48
2021/06/04 04:11:12;;;;;;;;;22.50;21.00;;;;;22.87;57.43;101331.09;5057518;28;45442;-50
2021/06/04 04:13:37;;;;;;;;;23.00;21.00;;;;;22.87;57.60;101322.97;5060627;28;45461;-52
2021/06/04 04:16:04;;;;;;;;;24.75;23.00;;;;;22.86;57.33;101334.75;5060253;28;47435;-53
2021/06/04 04:18:29;;;;;;;;;18.50;18.50;;;;;22.85;57.61;101335.72;5060127;28;45796;-51
2021/06/04 04:21:01;;;;;;;;;23.50;23.00;;;;;22.86;57.33;101326.63;5059452;28;45375;-51
2021/06/04 04:23:32;;;;;;;;;21.00;20.25;;;;;22.87;57.56;101331.09;5040654;28;45598;-50
2021/06/04 04:25:58;;;;;;;;;17.75;17.75;;;;;22.86;57.15;101327.50;5057161;28;48144;-49
2021/06/04 04:28:31;;;;;;;;;20.25;20.25;;;;;22.87;57.32;101328.41;5059809;28;45454;-48
2021/06/04 04:31:02;;;;;;;;;19.00;16.00;;;;;22.86;57.25;101332.03;5060684;28;45702;-51
2021/06/04 04:33:28;;;;;;;;;20.75;20.75;;;;;22.86;57.09;101323.91;5055196;28;45445;-47
2021/06/04 04:35:54;;;;;;;;;15.50;15.25;;;;;22.85;56.54;101324.88;5065351;28;47020;-51
2021/06/04 04:38:21;;;;;;;;;19.00;17.75;;;;;22.82;57.00;101327.75;5048924;27;45445;-52
2021/06/04 04:40:58;;;;;;;;;17.00;15.75;;;;;22.81;57.09;101315.19;5057336;28;45927;-51
2021/06/04 04:43:25;;;;;;;;;19.00;18.50;;;;;22.80;56.67;101306.22;5063262;28;46517;-50
2021/06/04 04:45:51;;;;;;;;;23.00;22.25;;;;;22.81;57.06;101317.91;5064084;28;46715;-50
2021/06/04 04:48:17;;;;;;;;;17.25;17.25;;;;;22.81;56.45;101326.03;5062166;28;45654;-49
2021/06/04 04:50:42;;;;;;;;;18.00;18.00;;;;;22.79;56.99;101326.13;5058432;28;45375;-48
2021/06/04 04:53:08;;;;;;;;;15.00;15.00;;;;;22.80;56.65;101318.88;5054501;28;45944;-51
2021/06/04 04:55:39;;;;;;;;;19.25;18.75;;;;;22.80;56.94;101318.88;5057841;28;47255;-46
2021/06/04 04:58:05;;;;;;;;;14.00;14.00;;;;;22.79;56.33;101309.88;5061299;28;45319;-52
2021/06/04 05:00:32;;;;;;;;;19.50;19.50;;;;;22.80;56.38;101308.06;5061913;28;45657;-51
2021/06/04 05:02:58;;;;;;;;;20.75;17.50;;;;;22.79;56.92;101296.34;5064408;28;45389;-51
2021/06/04 05:05:27;;;;;;;;;16.25;16.25;;;;;22.80;56.11;101292.69;5063809;28;47933;-51
2021/06/04 05:07:52;;;;;;;;;14.50;14.00;;;;;22.80;56.56;101292.69;5058329;27;45751;-48
2021/06/04 05:10:18;;;;;;;;;19.00;17.25;;;;;22.81;56.70;101293.56;5060993;27;45311;-52
2021/06/04 05:12:44;;;;;;;;;17.25;17.00;;;;;22.83;56.77;101291.66;5064987;28;45348;-49
2021/06/04 05:15:13;;;;;;;;;19.50;18.00;;;;;22.84;56.57;101293.38;5063887;28;47450;-48
2021/06/04 05:17:40;;;;;;;;;16.00;16.00;;;;;22.85;56.44;101314.06;5061840;28;45857;-51
2021/06/04 05:20:06;;;;;;;;;14.00;14.00;;;;;22.86;57.18;101372.63;5060780;28;45310;-53
2021/06/04 05:22:32;;;;;;;;;12.75;12.75;;;;;22.83;56.88;101444.06;5063921;28;45624;-53
2021/06/04 05:24:57;;;;;;;;;16.25;16.25;;;;;22.77;56.86;101466.06;5059125;27;47018;-53
2021/06/04 05:27:23;;;;;;;;;18.00;17.25;;;;;22.69;56.87;101452.13;5039014;28;45944;-46
2021/06/04 05:29:49;;;;;;;;;16.50;15.00;;;;;22.64;56.70;101458.78;5049323;28;45697;-48
2021/06/04 05:32:15;;;;;;;;;14.25;14.00;;;;;22.57;56.61;101463.69;5055389;28;45191;-51
2021/06/04 05:34:40;;;;;;;;;8.00;8.00;;;;;22.51;57.46;101478.47;5047783;28;47653;-53
2021/06/04 05:37:06;;;;;;;;;6.75;6.75;;;;;22.45;57.77;101486.94;5054262;28;46151;-51
2021/06/04 05:39:32;;;;;;;;;7.67;7.00;;;;;22.39;57.95;101502.66;5038891;28;45474;-48
2021/06/04 05:42:01;;;;;;;;;6.67;6.67;;;;;22.34;58.63;101508.31;5039271;28;45559;-46
2021/06/04 05:44:30;;;;;;;;;6.00;6.00;;;;;22.31;59.24;101501.25;5038724;28;47116;-54
2021/06/04 05:47:00;;;;;;;;;5.00;3.67;;;;;22.25;59.10;101527.81;5056192;28;45698;-56
2021/06/04 05:49:25;;;;;;;;;6.00;6.00;;;;;22.21;59.26;101526.22;5046227;28;45382;-48
2021/06/04 05:51:52;;;;;;;;;4.00;4.00;;;;;22.15;59.58;101511.22;5039018;28;45824;-52
2021/06/04 05:54:19;;;;;;;;;6.75;6.75;;;;;22.08;60.19;101519.75;5038715;28;48265;-51
2021/06/04 05:56:45;;;;;;;;;3.67;2.67;;;;;22.01;60.41;101506.56;5043606;28;45232;-50
2021/06/04 05:59:12;;;;;;;;;6.33;5.33;;;;;21.95;60.65;101481.72;5053447;28;45500;-52
2021/06/04 06:01:38;;;;;;;;;6.00;6.00;;;;;21.91;60.63;101469.34;5048457;28;45569;-50
2021/06/04 06:04:05;;;;;;;;;2.67;2.67;;;;;21.91;60.54;101456.69;5051441;28;46082;-49
2021/06/04 06:06:31;;;;;;;;;3.67;3.67;;;;;21.91;60.62;101461.25;5064795;28;45317;-47
2021/06/04 06:08:57;;;;;;;;;3.00;3.00;;;;;21.92;61.05;101469.25;5051738;27;46927;-47
2021/06/04 06:11:25;;;;;;;;;2.00;2.00;;;;;21.94;60.63;101459.22;5045441;28;45473;-51
2021/06/04 06:13:52;;;;;;;;;3.00;3.00;;;;;21.96;60.63;101465.41;5040855;28;47819;-49
2021/06/04 06:16:19;;;;;;;;;3.00;3.00;;;;;22.00;60.71;101466.13;5053204;28;45464;-46
2021/06/04 06:18:44;;;;;;;;;3.00;3.00;;;;;22.03;60.81;101447.03;5060203;28;45760;-49
2021/06/04 06:21:11;;;;;;;;;3.00;3.00;;;;;22.05;60.52;101447.78;5056794;27;45570;-47
2021/06/04 06:23:37;;;;;;;;;3.00;3.00;;;;;22.06;60.00;101449.56;5048762;28;47358;-48
2021/06/04 06:26:10;;;;;;;;;4.00;4.00;;;;;22.08;60.17;101449.47;5058304;28;44717;-49
2021/06/04 06:28:38;;;;;;;;;3.33;3.33;;;;;22.09;59.51;101443.97;5054087;28;45338;-49
2021/06/04 06:31:07;;;;;;;;;3.00;3.00;;;;;22.10;60.03;101447.56;5052641;28;45362;-51
2021/06/04 06:33:33;;;;;;;;;4.00;4.00;;;;;22.12;60.07;101440.25;5055444;28;46367;-51
2021/06/04 06:36:02;;;;;;;;;3.67;3.00;;;;;22.13;59.69;101434.75;5055163;28;45718;-47
2021/06/04 06:38:29;;;;;;;;;4.33;4.33;;;;;22.15;60.06;101426.53;5036332;28;45393;-47
2021/06/04 06:40:58;;;;;;;;;3.00;3.00;;;;;22.17;59.56;101416.50;5046338;28;45497;-52
2021/06/04 06:43:27;;;;;;;;;3.67;3.00;;;;;22.15;59.33;101413.91;5056765;28;45512;-49
2021/06/04 06:45:54;;;;;;;;;4.67;4.00;;;;;22.13;59.57;101401.44;5057470;28;46014;-51
2021/06/04 06:48:19;;;;;;;;;3.00;2.67;;;;;22.12;59.45;101405.09;5058090;28;45467;-48
2021/06/04 06:50:45;;;;;;;;;4.33;4.00;;;;;22.12;59.41;101405.09;5039364;28;45346;-51
2021/06/04 06:53:14;;;;;;;;;3.33;3.33;;;;;22.11;60.10;101401.53;5037507;28;48025;-50
2021/06/04 06:57:05;;;;;;;;;2.00;2.00;;;;;22.12;59.80;101419.50;5035833;27;45644;-51
2021/06/04 06:59:30;;;;;;;;;3.00;3.00;;;;;22.11;59.65;101427.69;5028304;28;45707;-48
2021/06/04 07:01:59;;;;;;;;;2.00;2.00;;;;;22.07;59.50;101442.34;5030382;28;45543;-50
2021/06/04 07:04:24;;;;;;;;;2.67;2.67;;;;;22.06;59.58;101454.09;5034366;28;45763;-52
2021/06/04 07:06:50;;;;;;;;;2.33;2.33;;;;;22.10;59.66;101461.06;5033723;28;48199;-49
2021/06/04 07:09:17;;;;;;;;;4.00;4.00;;;;;22.08;59.52;101457.59;5034213;28;45957;-50
2021/06/04 07:11:49;;;;;;;;;3.00;2.00;;;;;22.12;59.37;101454.63;5034683;28;45319;-48
2021/06/04 07:14:17;;;;;;;;;6.00;4.50;;;;;22.15;59.99;101457.16;5033410;28;45375;-50
2021/06/04 07:16:43;;;;;;;;;3.00;3.00;;;;;22.11;59.69;101454.72;5033846;28;48322;-50
2021/06/04 07:19:09;;;;;;;;;3.00;3.00;;;;;22.07;59.31;101455.84;5034227;28;45684;-48
2021/06/04 07:21:36;;;;;;;;;2.67;2.67;;;;;22.01;60.19;101455.22;5043648;28;45632;-47
2021/06/04 07:24:02;;;;;;;;;3.00;2.00;;;;;22.00;59.73;101450.78;5034544;28;45427;-48
2021/06/04 07:26:28;;;;;;;;;3.00;2.00;;;;;22.06;59.59;101457.69;5028285;28;46939;-51
2021/06/04 07:29:00;;;;;;;;;4.25;3.50;;;;;22.13;59.83;101455.50;5030641;28;45385;-48
2021/06/04 07:31:26;;;;;;;;;5.00;5.00;;;;;22.16;59.08;101458.91;5034056;28;45416;-50
2021/06/04 07:33:55;;;;;;;;;3.00;3.00;;;;;22.17;59.46;101452.53;5034203;28;45662;-52
2021/06/04 07:36:25;;;;;;;;;6.25;5.00;;;;;22.21;59.62;101447.81;5016020;28;47956;-50
2021/06/04 07:38:53;;;;;;;;;5.00;4.50;;;;;22.25;59.98;101452.09;5033359;28;46376;-46
2021/06/04 07:41:18;;;;;;;;;4.00;4.00;;;;;22.30;59.59;101442.72;5034360;28;45452;-48
2021/06/04 07:43:46;;;;;;;;;4.00;3.00;;;;;22.32;59.88;101438.09;5032680;28;45272;-49
2021/06/04 07:46:14;;;;;;;;;2.00;2.00;;;;;22.30;59.83;101450.84;5049009;28;48422;-50
2021/06/04 07:48:40;;;;;;;;;5.00;5.00;;;;;22.26;60.56;101457.41;5033481;28;45697;-59
2021/06/04 07:51:15;;;;;;;;;3.67;3.00;;;;;22.25;60.05;101457.50;5034065;28;45325;-48
2021/06/04 07:53:41;;;;;;;;;3.00;3.00;;;;;22.27;59.55;101456.44;5026749;28;45507;-52
2021/06/04 07:56:09;;;;;;;;;2.00;2.00;;;;;22.31;59.38;101454.41;5041607;28;45956;-50
2021/06/04 07:58:35;;;;;;;;;4.50;3.75;;;;;22.33;59.65;101444.38;5032264;28;45612;-49
2021/06/04 08:01:03;;;;;;;;;3.00;3.00;;;;;22.38;59.55;101441.41;5033213;28;45442;-46
2021/06/04 08:03:30;;;;;;;;;3.00;3.00;;;;;22.42;59.45;101441.13;5024264;28;45513;-50
2021/06/04 08:05:56;;;;;;;;;3.50;3.00;;;;;22.46;59.49;101441.81;5026100;28;47350;-48
2021/06/04 08:08:23;;;;;;;;;2.75;2.75;;;;;22.47;59.03;101439.00;5008933;28;45599;-45
2021/06/04 08:10:49;;;;;;;;;3.25;3.25;;;;;22.45;59.44;101427.41;5010914;28;45484;-49
2021/06/04 08:13:19;;;;;;;;;2.00;2.00;;;;;22.48;58.86;101423.66;5012109;28;45412;-50
2021/06/04 08:15:59;;;;;;;;;4.50;4.25;;;;;22.51;59.50;101423.50;5012821;28;45548;-49
2021/06/04 08:18:28;;;;;;;;;3.00;3.00;;;;;22.51;59.54;101421.66;5007681;28;45440;-50
2021/06/04 08:20:54;;;;;;;;;3.00;3.00;;;;;22.48;59.45;101411.00;5009165;28;45493;-48
2021/06/04 08:23:30;;;;;;;;;3.00;2.00;;;;;22.46;59.59;101415.63;5013297;28;45480;-50
2021/06/04 08:27:08;;;;;;;;;2.67;2.67;;;;;20.02;58.62;101425.22;5145251;27;45688;-48
2021/06/04 08:29:35;;;;;;;;;4.00;4.00;;;;;20.05;59.33;101427.75;5122202;27;45517;-49
2021/06/04 08:32:04;;;;;;;;;1.00;1.00;;;;;20.07;59.13;101423.09;5124053;27;45875;-48
2021/06/04 08:34:30;;;;;;;;;2.00;2.00;;;;;20.07;59.24;101415.00;5117694;27;45553;-46
2021/06/04 08:36:56;;;;;;;;;1.33;1.33;;;;;20.06;58.89;101418.66;5125345;27;47240;-45
2021/06/04 08:39:29;;;;;;;;;1.67;1.67;;;;;20.07;58.79;101415.84;5127059;27;46189;-49
2021/06/04 08:42:06;;;;;;;;;0.00;0.00;;;;;20.13;58.59;101430.88;5136273;27;45693;-48
2021/06/04 08:44:47;;;;;;;;;3.00;3.00;;;;;20.15;58.63;101431.63;5131156;27;45513;-52
2021/06/04 08:47:25;;;;;;;;;3.00;3.00;;;;;20.27;58.98;101430.91;5117083;27;47696;-63
2021/06/04 08:55:17;;;;;;;;;2.00;2.00;;;;;23.15;58.31;101431.25;5102947;27;45360;-48
2021/06/04 08:57:48;;;;;;;;;1.00;1.00;;;;;23.29;57.59;101432.22;5061269;27;45634;-52
2021/06/04 09:00:24;;;;;;;;;1.00;1.00;;;;;23.37;57.57;101427.16;5050933;28;46515;-52
2021/06/04 09:03:18;;;;;;;;;1.33;1.33;;;;;23.44;57.89;101423.97;5042297;28;45386;-53
2021/06/04 09:06:08;;;;;;;;;2.33;2.00;;;;;23.53;57.35;101424.38;5052623;28;47534;-53
2021/06/04 09:08:37;;;;;;;;;2.00;2.00;;;;;23.64;57.75;101427.28;5049824;28;45451;-53
2021/06/04 09:11:15;;;;;;;;;2.00;2.00;;;;;23.73;57.73;101429.38;5053201;28;45973;-54
2021/06/04 09:13:40;;;;;;;;;3.00;3.00;;;;;23.83;57.08;101429.66;5036736;28;45630;-52
2021/06/04 09:16:35;;;;;;;;;7.00;6.67;;;;;23.90;57.21;101429.16;5051595;28;48127;-51
2021/06/04 09:19:19;;;;;;;;;5.33;4.00;;;;;24.02;56.82;101430.19;4997896;28;45661;-50
2021/06/04 09:21:45;;;;;;;;;3.00;3.00;;;;;24.08;56.50;101432.47;5048815;28;46401;-52
2021/06/04 09:24:33;;;;;;;;;3.00;3.00;;;;;24.20;55.96;101431.66;5053778;28;45437;-53
2021/06/04 09:26:59;;;;;;;;;3.33;2.67;;;;;24.28;55.19;101429.28;5047628;28;45888;-52
2021/06/04 09:29:29;;;;;;;;;2.67;2.00;;;;;24.33;55.62;101435.28;5060699;28;45733;-52
2021/06/04 09:32:20;;;;;;;;;2.00;2.00;;;;;24.42;55.89;101433.81;5069704;28;45413;-51
2021/06/04 09:34:47;;;;;;;;;3.00;3.00;;;;;24.55;55.65;101434.72;5069830;28;45491;-51
2021/06/04 09:37:29;;;;;;;;;2.67;2.67;;;;;24.65;55.51;101432.25;5066851;28;45700;-48
2021/06/04 09:40:30;;;;;;;;;2.00;2.00;;;;;24.77;55.13;101430.47;5074155;28;45594;-48
2021/06/04 09:43:01;;;;;;;;;6.33;4.33;;;;;24.86;54.61;101441.56;5046601;28;45432;-50
2021/06/04 09:45:52;;;;;;;;;2.67;2.67;;;;;24.95;54.02;101427.38;5069543;28;45748;-51
2021/06/04 09:48:39;;;;;;;;;3.00;3.00;;;;;25.06;54.40;101429.34;5064052;28;47351;-52
2021/06/04 09:51:04;;;;;;;;;4.00;4.00;;;;;25.12;53.78;101433.47;5067252;27;45308;-53
2021/06/04 09:53:29;;;;;;;;;4.00;4.00;;;;;25.18;53.73;101436.63;5070253;28;45482;-52
2021/06/04 09:56:31;;;;;;;;;3.00;3.00;;;;;25.23;53.46;101447.16;5074105;28;45508;-53
2021/06/04 09:59:10;;;;;;;;;6.67;5.33;;;;;25.30;53.70;101450.31;5065258;28;48478;-53
2021/06/04 10:01:51;;;;;;;;;7.50;6.00;;;;;25.38;53.47;101450.63;5070347;28;45729;-49
2021/06/04 10:04:30;;;;;;;;;6.00;6.00;;;;;25.39;53.46;101447.78;5066095;28;45418;-50
2021/06/04 10:07:05;;;;;;;;;6.33;6.33;;;;;25.40;53.53;101446.78;5057088;28;45667;-49
2021/06/04 10:09:43;;;;;;;;;7.50;7.50;;;;;25.42;52.94;101446.72;5056500;28;47569;-47
2021/06/04 10:12:29;;;;;;;;;6.25;6.25;;;;;25.46;53.06;101454.53;5059248;28;45527;-51
2021/06/04 10:14:57;;;;;;;;;9.75;9.25;;;;;25.53;53.76;101452.22;5048467;28;45583;-50
2021/06/04 10:17:58;;;;;;;;;6.50;6.50;;;;;25.62;53.71;101453.41;5050625;28;45330;-53
2021/06/04 10:20:24;;;;;;;;;9.00;8.33;;;;;25.75;53.25;101448.84;5059192;28;46262;-50
2021/06/04 10:23:01;;;;;;;;;5.33;5.33;;;;;25.86;52.73;101453.47;5053032;28;45341;-51
2021/06/04 10:25:35;;;;;;;;;6.00;6.00;;;;;25.90;52.30;101455.84;5058970;28;45390;-51
2021/06/04 10:28:01;;;;;;;;;5.67;5.67;;;;;25.88;52.49;101449.66;5059006;28;45507;-50
2021/06/04 10:30:30;;;;;;;;;4.67;4.67;;;;;25.85;51.96;101449.03;5058873;28;47539;-51
2021/06/04 10:33:08;;;;;;;;;5.67;5.67;;;;;25.75;51.82;101446.97;5058924;28;45892;-52
2021/06/04 10:35:55;;;;;;;;;6.67;6.67;;;;;25.67;52.25;101446.66;5050914;28;45259;-51
2021/06/04 10:38:27;;;;;;;;;5.67;5.67;;;;;25.64;52.37;101452.31;5053521;28;45504;-52
2021/06/04 10:40:57;;;;;;;;;8.00;8.00;;;;;25.61;52.47;101457.09;5052751;28;48563;-50
2021/06/04 10:44:06;;;;;;;;;4.67;4.67;;;;;25.52;52.46;101455.91;5044423;28;45931;-49
2021/06/04 10:46:50;;;;;;;;;6.00;6.00;;;;;25.41;52.00;101462.16;5052234;28;45838;-47
2021/06/04 10:49:35;;;;;;;;;7.33;7.33;;;;;25.34;52.70;101454.53;5050935;28;45332;-49
2021/06/04 10:52:26;;;;;;;;;6.33;5.33;;;;;25.26;52.72;101457.78;5055333;28;48325;-48
2021/06/04 10:55:04;;;;;;;;;6.00;6.00;;;;;25.22;52.67;101459.88;5046111;28;45488;-52
2021/06/04 10:57:58;;;;;;;;;7.67;7.33;;;;;25.24;52.94;101459.75;5050393;28;45663;-52
2021/06/04 11:00:47;;;;;;;;;6.33;6.00;;;;;25.23;52.95;101455.31;5057579;28;45593;-53
2021/06/04 11:03:18;;;;;;;;;4.33;4.33;;;;;25.21;52.54;101459.97;5057494;28;47447;-51
2021/06/04 11:06:04;;;;;;;;;4.00;4.00;;;;;25.13;52.65;101463.22;5057245;28;45938;-51
2021/06/04 11:08:41;;;;;;;;;6.00;5.00;;;;;25.07;52.49;101462.81;5044698;28;45583;-53
2021/06/04 11:11:25;;;;;;;;;4.00;4.00;;;;;25.03;52.29;101462.16;5054991;28;45589;-50
2021/06/04 11:14:17;;;;;;;;;4.00;4.00;;;;;25.01;52.83;101455.09;5050779;28;46648;-54
2021/06/04 11:17:04;;;;;;;;;5.33;5.33;;;;;24.95;52.34;101453.66;5054493;28;45971;-51
2021/06/04 11:19:42;;;;;;;;;4.00;4.00;;;;;24.91;52.42;101453.00;5040411;28;45313;-48
2021/06/04 11:22:19;;;;;;;;;4.00;4.00;;;;;24.88;52.41;101450.47;5049458;28;45384;-48
2021/06/04 11:24:52;;;;;;;;;6.00;4.00;;;;;24.91;52.25;101450.28;5054088;28;48377;-49
2021/06/04 11:27:26;;;;;;;;;4.00;4.00;;;;;24.94;52.67;101451.91;5048605;28;45499;-50
2021/06/04 11:29:53;;;;;;;;;5.33;4.00;;;;;25.00;52.26;101437.88;5054471;28;45701;-47
2021/06/04 11:32:22;;;;;;;;;5.50;5.50;;;;;25.10;52.23;101440.84;5052061;28;45874;-51
2021/06/04 11:35:10;;;;;;;;;2.00;2.00;;;;;25.15;51.65;101446.81;5051308;28;47385;-50
2021/06/04 11:37:54;;;;;;;;;4.00;4.00;;;;;25.10;51.95;101439.00;5038742;28;45249;-52
2021/06/04 11:40:29;;;;;;;;;7.50;7.50;;;;;25.01;52.12;101450.53;5049849;28;45486;-52
2021/06/04 11:42:57;;;;;;;;;9.50;9.25;;;;;24.97;53.00;101448.97;5058844;28;45301;-52
2021/06/04 11:45:26;;;;;;;;;11.00;9.25;;;;;24.98;53.05;101453.44;5058009;28;48206;-54
2021/06/04 11:47:52;;;;;;;;;10.00;10.00;;;;;24.96;53.27;101452.66;5054976;28;45507;-55
2021/06/04 11:50:30;;;;;;;;;7.25;7.25;;;;;24.99;53.21;101446.16;5058283;28;45711;-54